Aérodrome :
LOGIN :

S'inscrire | Disclaimer

   EN    FR    IT 

 










Légende :    VFR   VFR Marginal   IFR   IFR Intensif   IFR Très Intensif
Visi : 
Plafond : 
>= 8 km
>= 3000ft
5 à 8 km
1000 à 3000 ft
1500m à 5 km
500 à 1000 ft
800 à 1500m
200 à 500 ft
< 800m
< 200 ft
Symboles :   Orages  Brouillard  Fortes neiges  Fortes précipitations  Vent > 20 kt
SIGMETs :   Divers  Orages  Givrage  Turbulence  Onde Orograph.  Cendres Volcan.







- Altitude de l'aérodrome : 171 ft
- Code IATA : EGC
- Voir les cartes d'approche


LFBE - Bergerac

DERNIER METAR :
  • 251100Z AUTO 27008KT 240V300 9999 BKN018 OVC028 20/16 Q1020 TEMPO 2000 -TSRA BKN012CB

METARs EXPIRÉS :
  • 251030Z AUTO 28006KT 230V310 9999 SCT014 BKN086 20/16 Q1020 TEMPO 2000 -TSRA BKN012CB
  • 251000Z AUTO 30004KT 260V330 9999 BKN011 OVC088 19/16 Q1020 TEMPO 2000 -TSRA BKN012CB
  • 250930Z AUTO 30006KT 9999 BKN010 BKN014 BKN043 18/16 Q1020 TEMPO 2000 -TSRA BKN012CB
  • 250900Z AUTO 27006KT 9999 VCTS BKN010/// OVC096/// ///CB 18/16 Q1020 TEMPO 2000 -TSRA BKN010
  • 250830Z AUTO 27008KT 9999 BKN008 BKN034 OVC100 17/16 Q1020 TEMPO 2000 -TSRA BKN012CB

TAF TAF LFBE
Valide du 25 à 12h jusqu'au 26 à 12h UTC


251100Z 2512/2612 29010KT 9999 BKN020
TEMPO 2512/2514 4000 RA SCT010 BKN020TCU
PROB30
TEMPO 2512/2514 2000 -TSRA BKN015CB
PROB30
TEMPO 2515/2517 4000 -SHRA BKN030TCU
BECMG 2600/2602 VRB02KT
Pas de NOTAMs connus pour ce terrain.
2 SIGMETs publiés pour la FIR Bordeaux (LFBB) :
 
Orages noyés dans la masse
LFBB SIGMET 7 VALID 251130/251300 LFPW
LFBB BORDEAUX FIR/UIR EMBD TS OBS WI N4245 E00230 - N4215 E00230 - N4230 E00130 - N4300 E00145 TOP FL340 MOV E 15KT NC=
Orages noyés dans la masse
LFBB SIGMET 6 VALID 251030/251130 LFPW
LFBB BORDEAUX FIR/UIR EMBD TS OBS WI N4230 E00130 - N4230 E00045 - N4345 E00145 - N4330 E00230 TOP FL340 MOV NE 20KT NC=



MET'MAP, la Météo Aéronautique d'un coup d'oeil ! - Copyright ORBIFLY Décembre 2007 - Disclaimer

ORBIFLY MET'MAP TEAM :

Programmation & Développement : Alexandra Zaïnal
Conception & Développement : Baudouin d'Aumeries
Co-Programmation & Développement : Marc-Olivier Méhu
Soutien technique & logistique : Manuel Goepfert

Contact : metmap@orbifly.com




SOURCES & CREDITS :

   NOAA